Whitehouse, Kentucky
Current Conditions -  °F | °C
As of 5:35 AM on Sunday 21 Dec 2014 (Local Time) from KSJS Reporting Station
Clear Clear  
Wind Chill: 26°   Ceiling: Unl
Heat Index: 26°   Visibility: 10mi
Dew Point: 25°   Wind: 3mph
Humidity: 94%   Direction: 70°ENE
Pressure: 30.26"   Gusts: NA
Location:  37.7517°N, 82.9074°W
Report Text: KSJS 211035Z AUTO 07003KT 10SM CLR M03/M04 A3026 RMK AO2 T10321040
Loading
Personal Weather Stations






























Interactive Weather Map New forecast layout! Learn more

10-Day Weather Forecast

Advertisements
Track Severe Weather on mobile